Time;durP1;ratioP1;P1;durP2;ratioP2;P2;SDS_P1;SDS_P2;PMS_P1;PMS_P2;Temp;Humidity;BMP_temperature;BMP_pressure;BME280_temperature;BME280_humidity;BME280_pressure;Samples;Min_cycle;Max_cycle;Signal;HPM_P1;HPM_P2
2024/03/24 00:01:48;;;;;;;13.27;4.35;;;5.10;99.90;;;;;;5040001;28;20054;-73
2024/03/24 00:04:14;;;;;;;11.27;4.57;;;5.10;99.90;;;;;;5049930;28;20041;-73
2024/03/24 00:06:39;;;;;;;12.02;4.35;;;5.20;99.90;;;;;;5031388;28;20052;-70
2024/03/24 00:09:06;;;;;;;11.32;4.22;;;5.10;99.90;;;;;;5036013;28;20033;-73
2024/03/24 00:11:32;;;;;;;12.82;4.97;;;5.20;99.90;;;;;;5015583;28;20500;-73
2024/03/24 00:13:58;;;;;;;14.13;5.05;;;5.20;99.90;;;;;;5041642;28;20043;-73
2024/03/24 00:16:24;;;;;;;11.52;4.53;;;5.10;99.90;;;;;;5038642;28;20048;-73
2024/03/24 00:18:49;;;;;;;12.07;4.80;;;5.20;99.90;;;;;;5038227;28;20057;-73
2024/03/24 00:21:15;;;;;;;13.57;5.10;;;5.20;99.90;;;;;;5041980;28;20025;-73
2024/03/24 00:23:40;;;;;;;10.52;4.50;;;5.20;99.90;;;;;;5029458;28;20055;-73
2024/03/24 00:26:06;;;;;;;11.63;4.53;;;5.20;99.90;;;;;;5029167;28;20621;-73
2024/03/24 00:28:32;;;;;;;15.00;4.95;;;5.20;99.90;;;;;;5032188;28;20037;-73
2024/03/24 00:30:58;;;;;;;12.20;5.30;;;5.20;99.90;;;;;;5029431;28;20029;-73
2024/03/24 00:33:23;;;;;;;10.63;4.97;;;5.30;99.90;;;;;;5051588;28;20037;-73
2024/03/24 00:35:49;;;;;;;12.10;5.45;;;5.30;99.90;;;;;;5038295;28;20039;-73
2024/03/24 00:38:14;;;;;;;10.77;5.18;;;5.30;99.90;;;;;;5047986;28;20029;-73
2024/03/24 00:40:40;;;;;;;17.60;5.75;;;5.30;99.90;;;;;;5022027;28;20042;-73
2024/03/24 00:43:06;;;;;;;14.50;5.80;;;5.30;99.90;;;;;;5044768;28;20369;-73
2024/03/24 00:45:31;;;;;;;13.63;5.50;;;5.30;99.90;;;;;;5048635;28;20044;-73
2024/03/24 00:47:57;;;;;;;16.23;6.22;;;5.40;99.90;;;;;;5020910;28;20047;-73
2024/03/24 00:50:23;;;;;;;11.35;5.55;;;5.40;99.90;;;;;;5020211;28;20411;-73
2024/03/24 00:52:48;;;;;;;9.80;5.32;;;5.40;99.90;;;;;;5047613;28;20037;-73
2024/03/24 00:55:14;;;;;;;14.23;5.72;;;5.50;99.90;;;;;;5033864;28;20111;-73
2024/03/24 00:57:40;;;;;;;12.15;5.50;;;5.50;99.90;;;;;;5032663;28;20045;-73
2024/03/24 01:00:09;;;;;;;12.52;5.70;;;5.50;99.90;;;;;;5047240;28;20032;-73
2024/03/24 01:02:35;;;;;;;12.40;5.80;;;5.50;99.90;;;;;;5039041;28;20148;-73
2024/03/24 01:05:01;;;;;;;9.00;5.57;;;5.80;99.90;;;;;;5041806;28;20056;-73
2024/03/24 01:07:29;;;;;;;13.00;5.47;;;5.50;99.90;;;;;;5044156;28;20033;-73
2024/03/24 01:09:55;;;;;;;9.95;4.75;;;5.50;99.90;;;;;;5034753;28;20044;-73
2024/03/24 01:12:23;;;;;;;10.35;4.43;;;5.60;99.90;;;;;;5049402;28;20515;-73
2024/03/24 01:14:48;;;;;;;9.52;5.53;;;5.80;99.90;;;;;;5033006;28;20078;-73
2024/03/24 01:17:14;;;;;;;9.38;4.70;;;5.60;99.90;;;;;;5031472;28;20077;-73
2024/03/24 01:19:40;;;;;;;10.02;5.40;;;5.50;99.90;;;;;;5034042;28;20033;-73
2024/03/24 01:22:05;;;;;;;13.20;5.90;;;5.50;99.90;;;;;;5021313;28;20045;-73
2024/03/24 01:24:31;;;;;;;11.23;5.72;;;5.40;99.90;;;;;;5044784;28;20044;-73
2024/03/24 01:26:57;;;;;;;13.88;5.82;;;5.50;99.90;;;;;;5027452;28;20383;-74
2024/03/24 01:29:23;;;;;;;8.43;4.88;;;5.40;99.90;;;;;;5033297;28;20072;-73
2024/03/24 01:31:48;;;;;;;5.43;3.47;;;5.40;99.90;;;;;;5046966;28;20133;-73
2024/03/24 01:34:14;;;;;;;6.63;3.28;;;5.30;99.90;;;;;;5038127;28;20037;-73
2024/03/24 01:36:40;;;;;;;8.80;3.88;;;5.30;99.90;;;;;;5040895;28;20135;-73
2024/03/24 01:39:06;;;;;;;9.45;3.67;;;5.20;99.90;;;;;;5034439;28;20037;-74
2024/03/24 01:41:32;;;;;;;6.75;3.75;;;5.20;99.90;;;;;;5044309;28;20052;-74
2024/03/24 01:43:58;;;;;;;9.45;3.80;;;5.10;99.90;;;;;;5022930;28;20041;-74
2024/03/24 01:46:24;;;;;;;10.43;4.00;;;5.10;99.90;;;;;;5034861;28;20029;-73
2024/03/24 01:48:50;;;;;;;8.70;4.60;;;5.10;99.90;;;;;;5052961;28;20491;-74
2024/03/24 01:51:18;;;;;;;8.32;4.43;;;5.70;99.90;;;;;;5034420;28;20071;-73
2024/03/24 01:53:46;;;;;;;10.40;4.93;;;5.00;99.90;;;;;;5049006;28;20119;-73
2024/03/24 01:56:12;;;;;;;9.43;4.80;;;5.00;99.90;;;;;;5032883;28;20044;-73
2024/03/24 01:58:38;;;;;;;10.35;5.13;;;5.00;99.90;;;;;;5053997;28;20063;-73
2024/03/24 02:01:05;;;;;;;11.52;5.30;;;5.00;99.90;;;;;;5050554;28;20078;-74
2024/03/24 02:03:35;;;;;;;17.05;6.22;;;5.10;99.90;;;;;;5026506;28;20033;-73
2024/03/24 02:06:02;;;;;;;11.77;5.90;;;5.00;99.90;;;;;;5031627;28;20048;-73
2024/03/24 02:08:29;;;;;;;11.60;6.35;;;5.00;99.90;;;;;;5025090;28;20117;-73
2024/03/24 02:11:00;;;;;;;16.33;7.35;;;5.90;99.90;;;;;;5051340;28;20127;-73
2024/03/24 02:13:31;;;;;;;13.05;7.25;;;5.10;99.90;;;;;;5048531;28;20040;-73
2024/03/24 02:15:59;;;;;;;15.95;7.63;;;5.10;99.90;;;;;;5030266;28;20048;-73
2024/03/24 02:18:27;;;;;;;14.25;7.85;;;5.10;99.90;;;;;;5047704;28;20553;-73
2024/03/24 02:20:55;;;;;;;18.23;7.85;;;5.20;99.90;;;;;;5001567;28;20041;-73
2024/03/24 02:23:22;;;;;;;15.50;7.63;;;5.30;99.90;;;;;;5031468;28;20137;-73
2024/03/24 02:25:52;;;;;;;16.95;8.00;;;5.20;99.90;;;;;;5045518;28;20029;-73
2024/03/24 02:28:20;;;;;;;14.88;8.07;;;5.20;99.90;;;;;;5035446;28;20252;-73
2024/03/24 02:30:53;;;;;;;14.07;7.43;;;5.30;99.90;;;;;;5036531;28;20588;-73
2024/03/24 02:33:23;;;;;;;14.00;6.88;;;5.30;99.90;;;;;;5019228;28;20457;-73
2024/03/24 02:35:52;;;;;;;17.98;7.38;;;5.40;99.90;;;;;;5015222;28;20092;-73
2024/03/24 02:38:19;;;;;;;17.02;8.07;;;5.40;99.90;;;;;;5048695;28;20053;-73
2024/03/24 02:40:50;;;;;;;13.35;7.57;;;5.40;99.90;;;;;;5035568;28;20090;-73
2024/03/24 02:43:17;;;;;;;16.88;7.60;;;5.50;99.90;;;;;;5040667;28;20091;-73
2024/03/24 02:45:45;;;;;;;18.35;8.50;;;5.50;99.90;;;;;;5031266;28;20037;-73
2024/03/24 02:48:14;;;;;;;21.40;8.38;;;5.50;99.90;;;;;;5028037;28;20045;-73
2024/03/24 02:50:41;;;;;;;16.30;8.00;;;5.50;99.90;;;;;;5052395;28;20040;-73
2024/03/24 02:53:08;;;;;;;11.75;7.03;;;5.60;99.90;;;;;;5021262;28;20049;-72
2024/03/24 02:55:34;;;;;;;14.82;7.35;;;5.60;99.90;;;;;;5031941;28;20044;-72
2024/03/24 02:58:01;;;;;;;11.18;4.97;;;5.60;99.90;;;;;;5022054;28;20038;-72
2024/03/24 03:00:27;;;;;;;11.13;4.35;;;5.60;99.90;;;;;;5031711;28;20467;-72
2024/03/24 03:02:53;;;;;;;8.90;3.38;;;5.60;99.90;;;;;;5033408;28;20059;-72
2024/03/24 03:05:19;;;;;;;10.25;3.17;;;5.60;99.90;;;;;;5034019;28;20109;-72
2024/03/24 03:07:45;;;;;;;7.47;3.00;;;5.60;99.90;;;;;;5050035;28;20395;-72
2024/03/24 03:10:11;;;;;;;10.52;3.10;;;5.60;99.90;;;;;;5049671;28;20037;-73
2024/03/24 03:12:37;;;;;;;8.27;2.88;;;5.60;99.90;;;;;;5041454;28;20052;-72
2024/03/24 03:15:04;;;;;;;6.28;2.95;;;5.50;99.90;;;;;;5043693;28;20091;-72
2024/03/24 03:17:30;;;;;;;8.15;3.17;;;5.50;99.90;;;;;;5050651;28;20067;-72
2024/03/24 03:19:56;;;;;;;8.88;2.88;;;5.50;99.90;;;;;;5050249;28;20044;-73
2024/03/24 03:22:22;;;;;;;7.97;2.30;;;5.50;99.90;;;;;;5037362;28;20045;-72
2024/03/24 03:24:48;;;;;;;3.75;1.88;;;5.50;99.90;;;;;;5049299;28;20063;-73
2024/03/24 03:27:14;;;;;;;5.45;1.98;;;5.50;99.90;;;;;;5036432;28;20395;-73
2024/03/24 03:29:40;;;;;;;4.07;1.83;;;5.50;99.90;;;;;;5049713;28;20041;-72
2024/03/24 03:32:06;;;;;;;5.13;1.90;;;5.50;99.90;;;;;;5050312;28;20135;-73
2024/03/24 03:34:31;;;;;;;4.85;1.77;;;5.40;99.90;;;;;;5048350;28;20040;-72
2024/03/24 03:36:57;;;;;;;5.30;1.83;;;5.40;99.90;;;;;;5047334;28;20047;-72
2024/03/24 03:39:22;;;;;;;3.83;1.50;;;5.40;99.90;;;;;;5031173;28;20048;-73
2024/03/24 03:41:48;;;;;;;3.15;1.77;;;5.30;99.90;;;;;;5046108;28;20041;-73
2024/03/24 03:44:14;;;;;;;5.90;1.65;;;5.40;99.90;;;;;;5040906;28;20060;-72
2024/03/24 03:46:39;;;;;;;3.85;1.48;;;5.30;99.90;;;;;;5031314;28;20045;-72
2024/03/24 03:49:05;;;;;;;4.40;1.80;;;5.30;99.90;;;;;;5044970;28;20060;-73
2024/03/24 03:51:37;;;;;;;4.05;1.80;;;5.30;99.90;;;;;;5048999;28;20033;-72
2024/03/24 03:54:06;;;;;;;5.63;1.98;;;5.30;99.90;;;;;;5049159;28;20048;-72
2024/03/24 03:56:32;;;;;;;8.07;2.30;;;5.30;99.90;;;;;;5044861;28;20042;-73
2024/03/24 03:58:57;;;;;;;8.13;2.17;;;5.30;99.90;;;;;;5035778;28;20103;-73
2024/03/24 04:01:23;;;;;;;8.32;2.30;;;5.30;99.90;;;;;;5045483;28;20037;-73
2024/03/24 04:03:48;;;;;;;4.80;2.40;;;5.30;99.90;;;;;;5047681;28;20079;-73
2024/03/24 04:06:14;;;;;;;5.43;2.53;;;5.30;99.90;;;;;;5029657;28;20471;-72
2024/03/24 04:08:40;;;;;;;6.15;2.60;;;5.50;99.90;;;;;;5043701;28;20496;-73
2024/03/24 04:11:09;;;;;;;11.00;2.28;;;5.30;99.90;;;;;;5058413;22;20072;-72
2024/03/24 04:13:34;;;;;;;7.22;2.75;;;5.30;99.90;;;;;;5042590;28;20068;-72
2024/03/24 04:16:00;;;;;;;8.80;2.65;;;5.30;99.90;;;;;;5045894;28;20033;-72
2024/03/24 04:18:26;;;;;;;5.60;2.40;;;5.30;99.90;;;;;;5047440;28;20406;-72
2024/03/24 04:20:52;;;;;;;7.45;2.30;;;5.30;99.90;;;;;;5046332;28;20123;-72
2024/03/24 04:23:19;;;;;;;6.20;2.30;;;5.30;99.90;;;;;;5023560;28;20042;-72
2024/03/24 04:25:48;;;;;;;8.68;2.28;;;5.30;99.90;;;;;;5023254;28;20037;-72
2024/03/24 04:28:14;;;;;;;7.70;2.22;;;5.30;99.90;;;;;;5030328;28;20439;-72
2024/03/24 04:30:39;;;;;;;6.97;2.40;;;5.40;99.90;;;;;;5027549;28;20037;-72
2024/03/24 04:33:05;;;;;;;6.15;1.90;;;5.40;99.90;;;;;;5027548;28;20040;-72
2024/03/24 04:35:30;;;;;;;4.68;1.90;;;5.40;99.90;;;;;;5037918;28;20040;-72
2024/03/24 04:37:56;;;;;;;8.02;2.22;;;5.40;99.90;;;;;;5031792;28;20061;-72
2024/03/24 04:40:21;;;;;;;4.63;1.80;;;5.40;99.90;;;;;;5028199;28;20099;-72
2024/03/24 04:42:47;;;;;;;5.20;1.77;;;5.50;99.90;;;;;;5039593;28;20065;-72
2024/03/24 04:45:13;;;;;;;5.72;1.73;;;5.40;99.90;;;;;;5038175;28;20087;-72
2024/03/24 04:47:38;;;;;;;7.22;2.10;;;5.40;99.90;;;;;;5025604;28;20035;-72
2024/03/24 04:50:05;;;;;;;6.85;2.00;;;5.50;99.90;;;;;;5015797;28;20034;-72
2024/03/24 04:52:30;;;;;;;6.85;2.20;;;5.40;99.90;;;;;;5025661;28;20152;-72
2024/03/24 04:54:57;;;;;;;5.95;1.85;;;5.60;99.90;;;;;;5024540;28;20141;-72
2024/03/24 04:57:22;;;;;;;6.63;2.17;;;5.40;99.90;;;;;;5046373;28;20087;-72
2024/03/24 04:59:48;;;;;;;4.90;2.00;;;5.40;99.90;;;;;;5027585;28;20073;-72
2024/03/24 05:02:14;;;;;;;8.15;2.08;;;5.40;99.90;;;;;;5020504;28;20078;-72
2024/03/24 05:04:40;;;;;;;5.22;2.17;;;5.40;99.90;;;;;;5024074;28;20045;-72
2024/03/24 05:07:05;;;;;;;5.53;2.20;;;5.40;99.90;;;;;;5026051;28;20110;-72
2024/03/24 05:09:31;;;;;;;5.13;1.80;;;5.30;99.90;;;;;;5028938;28;20037;-72
2024/03/24 05:11:57;;;;;;;5.50;1.90;;;5.30;99.90;;;;;;5021450;28;20053;-72
2024/03/24 05:14:22;;;;;;;5.88;1.88;;;5.30;99.90;;;;;;5035971;28;20056;-72
2024/03/24 05:16:50;;;;;;;11.40;2.10;;;5.30;99.90;;;;;;5038273;28;20480;-72
2024/03/24 05:19:15;;;;;;;13.90;2.47;;;5.30;99.90;;;;;;5015396;28;20589;-72
2024/03/24 05:21:41;;;;;;;9.75;2.00;;;5.30;99.90;;;;;;5032931;28;20053;-71
2024/03/24 05:24:07;;;;;;;9.43;2.13;;;5.30;99.90;;;;;;5019999;28;20044;-72
2024/03/24 05:26:36;;;;;;;10.90;2.17;;;5.40;99.90;;;;;;5028292;28;20045;-72
2024/03/24 05:29:03;;;;;;;9.18;2.25;;;5.40;99.90;;;;;;5026835;28;20104;-72
2024/03/24 05:31:29;;;;;;;7.32;2.17;;;5.40;99.90;;;;;;5031412;28;20037;-72
2024/03/24 05:33:55;;;;;;;8.15;1.98;;;5.60;99.90;;;;;;5028052;28;20123;-72
2024/03/24 05:36:21;;;;;;;6.82;1.70;;;5.50;99.90;;;;;;5029634;28;20099;-72
2024/03/24 05:38:46;;;;;;;7.53;1.70;;;5.50;99.90;;;;;;5032409;28;20052;-72
2024/03/24 05:41:14;;;;;;;6.15;1.77;;;5.50;99.90;;;;;;5029128;28;20120;-72
2024/03/24 05:43:39;;;;;;;7.07;1.67;;;5.40;99.90;;;;;;5033600;28;20087;-72
2024/03/24 05:46:06;;;;;;;5.97;1.80;;;5.40;99.90;;;;;;5034168;28;20037;-72
2024/03/24 05:48:32;;;;;;;7.53;1.90;;;5.40;99.90;;;;;;5035375;28;20040;-72
2024/03/24 05:50:58;;;;;;;6.38;1.65;;;5.40;99.90;;;;;;5044442;28;20045;-72
2024/03/24 05:53:24;;;;;;;8.73;1.63;;;5.40;99.90;;;;;;5027158;28;20420;-72
2024/03/24 05:55:50;;;;;;;7.68;2.28;;;5.40;99.90;;;;;;5026956;28;20609;-72
2024/03/24 05:58:18;;;;;;;11.88;2.35;;;5.40;99.90;;;;;;5026296;28;20041;-72
2024/03/24 06:00:44;;;;;;;6.38;2.28;;;5.40;99.90;;;;;;5037458;28;20446;-72
2024/03/24 06:03:10;;;;;;;14.73;2.00;;;5.40;99.90;;;;;;5021732;28;20121;-72
2024/03/24 06:05:39;;;;;;;11.23;2.38;;;5.50;99.90;;;;;;5040782;28;20467;-72
2024/03/24 06:08:11;;;;;;;4.90;2.10;;;5.50;99.90;;;;;;5033673;28;20045;-72
2024/03/24 06:10:37;;;;;;;7.13;2.60;;;5.50;99.90;;;;;;5007303;28;20049;-72
2024/03/24 06:13:03;;;;;;;10.75;2.50;;;5.50;99.90;;;;;;5025536;28;20478;-72
2024/03/24 06:15:29;;;;;;;9.63;2.20;;;5.50;99.90;;;;;;5032434;28;20120;-72
2024/03/24 06:17:55;;;;;;;11.20;2.22;;;5.50;99.90;;;;;;5034086;28;20034;-72
2024/03/24 06:20:20;;;;;;;16.65;2.30;;;5.50;99.90;;;;;;5021013;28;20047;-72
2024/03/24 06:22:46;;;;;;;9.75;2.45;;;5.50;99.90;;;;;;5033702;28;20529;-72
2024/03/24 06:25:12;;;;;;;9.23;2.03;;;5.60;99.90;;;;;;5021411;28;20033;-72
2024/03/24 06:27:37;;;;;;;12.85;2.53;;;5.60;99.90;;;;;;5029155;28;20033;-72
2024/03/24 06:30:03;;;;;;;9.23;2.20;;;5.60;99.90;;;;;;5032422;28;20047;-72
2024/03/24 06:32:29;;;;;;;14.73;2.97;;;5.60;99.90;;;;;;5031405;28;20075;-72
2024/03/24 06:34:55;;;;;;;13.32;2.65;;;5.70;99.90;;;;;;5034496;28;20137;-72
2024/03/24 06:37:20;;;;;;;11.25;2.53;;;5.70;99.90;;;;;;5018890;28;20480;-72
2024/03/24 06:39:48;;;;;;;11.48;2.88;;;5.70;99.90;;;;;;5024549;28;20041;-72
2024/03/24 06:42:14;;;;;;;9.73;2.53;;;5.80;99.90;;;;;;5039083;28;20099;-72
2024/03/24 06:44:42;;;;;;;16.55;2.65;;;5.70;99.90;;;;;;5029189;28;20060;-72
2024/03/24 06:47:08;;;;;;;10.68;2.80;;;5.70;99.90;;;;;;5031755;28;20064;-72
2024/03/24 06:49:33;;;;;;;14.15;2.55;;;5.80;99.90;;;;;;5032062;28;20400;-72
2024/03/24 06:51:59;;;;;;;13.32;2.25;;;5.80;99.90;;;;;;5040884;28;20037;-72
2024/03/24 06:54:25;;;;;;;13.18;2.65;;;5.80;99.90;;;;;;5029290;28;20041;-72
2024/03/24 06:56:51;;;;;;;19.90;3.47;;;5.80;99.90;;;;;;5037481;28;20033;-72
2024/03/24 06:59:17;;;;;;;15.52;3.15;;;5.80;99.90;;;;;;5038380;28;20042;-72
2024/03/24 07:01:42;;;;;;;16.98;3.50;;;5.90;99.90;;;;;;5036470;28;20043;-72
2024/03/24 07:04:08;;;;;;;14.88;2.92;;;6.00;99.90;;;;;;5034851;28;20034;-72
2024/03/24 07:06:34;;;;;;;19.73;3.65;;;6.10;99.90;;;;;;5031813;28;20467;-72
2024/03/24 07:09:00;;;;;;;20.48;3.58;;;6.10;99.90;;;;;;5031232;28;20484;-72
2024/03/24 07:11:25;;;;;;;20.25;3.60;;;6.20;99.90;;;;;;5028302;28;20111;-73
2024/03/24 07:13:51;;;;;;;17.75;2.80;;;6.50;99.90;;;;;;5025661;28;20385;-72
2024/03/24 07:16:16;;;;;;;18.35;3.58;;;6.30;99.90;;;;;;5027796;28;20125;-73
2024/03/24 07:18:42;;;;;;;14.13;3.75;;;6.30;99.90;;;;;;5025143;28;20509;-72
2024/03/24 07:21:08;;;;;;;21.13;3.72;;;6.40;99.90;;;;;;5035535;28;20073;-73
2024/03/24 07:23:33;;;;;;;20.40;3.53;;;6.50;99.90;;;;;;5030000;28;20112;-73
2024/03/24 07:25:59;;;;;;;17.70;3.58;;;6.60;99.90;;;;;;5033711;28;20135;-72
2024/03/24 07:28:25;;;;;;;18.75;3.67;;;6.60;99.90;;;;;;5030112;28;20029;-73
2024/03/24 07:30:51;;;;;;;20.92;3.63;;;6.70;99.90;;;;;;5024658;28;20038;-72
2024/03/24 07:33:16;;;;;;;19.83;3.50;;;7.00;99.90;;;;;;5031921;28;20045;-73
2024/03/24 07:35:42;;;;;;;18.80;3.50;;;6.80;99.90;;;;;;5028692;28;20045;-73
2024/03/24 07:38:09;;;;;;;17.65;3.90;;;6.80;99.90;;;;;;5034652;28;20049;-72
2024/03/24 07:40:34;;;;;;;16.13;3.35;;;6.90;99.90;;;;;;5034355;28;20042;-73
2024/03/24 07:43:00;;;;;;;19.20;3.60;;;7.00;99.90;;;;;;5032836;28;20049;-73
2024/03/24 07:45:26;;;;;;;17.10;3.40;;;7.20;99.90;;;;;;5038639;28;20040;-72
2024/03/24 07:47:52;;;;;;;14.07;3.42;;;7.20;99.90;;;;;;5020099;28;20489;-73
2024/03/24 07:50:17;;;;;;;19.13;3.05;;;7.30;99.90;;;;;;5033168;28;20053;-72
2024/03/24 07:52:43;;;;;;;15.50;3.25;;;7.30;99.90;;;;;;5027162;28;20431;-73
2024/03/24 07:55:09;;;;;;;15.85;3.28;;;7.30;99.90;;;;;;5029918;28;20040;-72
2024/03/24 07:57:37;;;;;;;18.85;3.47;;;7.40;99.90;;;;;;5035178;28;20041;-73
2024/03/24 08:00:04;;;;;;;14.90;3.10;;;7.30;99.90;;;;;;5025562;28;20041;-74
2024/03/24 08:02:29;;;;;;;15.38;3.13;;;7.30;99.90;;;;;;5025128;28;20447;-74
2024/03/24 08:04:55;;;;;;;17.52;3.42;;;7.20;99.90;;;;;;5014943;28;20026;-74
2024/03/24 08:07:21;;;;;;;16.23;3.15;;;7.10;99.90;;;;;;5022999;28;20041;-74
2024/03/24 08:09:46;;;;;;;20.70;3.70;;;6.90;99.90;;;;;;5014224;28;20700;-73
2024/03/24 08:12:12;;;;;;;19.15;6.53;;;6.90;99.90;;;;;;5025260;28;20045;-74
2024/03/24 08:14:38;;;;;;;10.70;3.85;;;6.80;99.90;;;;;;5027083;28;20484;-74
2024/03/24 08:17:03;;;;;;;7.63;2.78;;;6.70;99.90;;;;;;5029745;28;20041;-74
2024/03/24 08:19:29;;;;;;;5.97;2.92;;;6.50;99.90;;;;;;5026187;28;20041;-73
2024/03/24 08:21:56;;;;;;;4.05;1.60;;;6.30;99.90;;;;;;5030270;28;20504;-74
2024/03/24 08:24:22;;;;;;;3.88;1.33;;;6.20;99.90;;;;;;5021580;28;20061;-73
2024/03/24 08:26:48;;;;;;;5.15;1.10;;;6.10;99.90;;;;;;5024520;28;20084;-73
2024/03/24 08:29:13;;;;;;;4.82;1.20;;;6.00;99.90;;;;;;5021418;28;20033;-74
2024/03/24 08:31:39;;;;;;;4.35;1.13;;;6.00;99.90;;;;;;5028696;28;20073;-74
2024/03/24 08:34:04;;;;;;;7.35;1.55;;;6.00;99.90;;;;;;5019114;28;20034;-73
2024/03/24 08:36:30;;;;;;;10.20;1.60;;;5.90;99.90;;;;;;5026173;28;20057;-73
2024/03/24 08:38:56;;;;;;;6.38;1.20;;;5.90;99.90;;;;;;5027296;28;20044;-73
2024/03/24 08:41:21;;;;;;;12.77;2.10;;;5.90;99.90;;;;;;5028500;28;20143;-74
2024/03/24 08:43:47;;;;;;;7.82;1.40;;;5.90;99.90;;;;;;5026224;28;20492;-73
2024/03/24 08:46:13;;;;;;;10.63;1.75;;;6.00;99.90;;;;;;5031650;28;20042;-74
2024/03/24 08:48:39;;;;;;;7.50;1.67;;;6.00;99.90;;;;;;5028050;28;20610;-74
2024/03/24 08:51:05;;;;;;;6.40;1.30;;;6.10;99.90;;;;;;5029904;28;20124;-74
2024/03/24 08:53:30;;;;;;;9.05;1.40;;;6.10;99.90;;;;;;5027317;28;20049;-74
2024/03/24 08:55:56;;;;;;;11.38;1.80;;;6.10;99.90;;;;;;5026915;28;20037;-75
2024/03/24 08:58:22;;;;;;;10.27;1.85;;;6.20;99.90;;;;;;5019945;28;20045;-75
2024/03/24 09:00:52;;;;;;;6.30;1.67;;;6.20;99.90;;;;;;5022824;28;20046;-75
2024/03/24 09:03:18;;;;;;;6.10;1.52;;;6.30;99.90;;;;;;5026192;28;20095;-74
2024/03/24 09:05:44;;;;;;;7.80;1.60;;;6.20;99.90;;;;;;5021324;28;20124;-74
2024/03/24 09:08:09;;;;;;;12.18;1.70;;;6.20;99.90;;;;;;5030386;28;20435;-73
2024/03/24 09:10:35;;;;;;;6.55;1.70;;;6.20;99.90;;;;;;5025141;28;20124;-73
2024/03/24 09:13:01;;;;;;;8.07;1.20;;;6.30;99.90;;;;;;5026789;28;20528;-71
2024/03/24 09:15:26;;;;;;;5.88;1.83;;;6.40;99.90;;;;;;5023701;28;20079;-72
2024/03/24 09:17:52;;;;;;;5.20;1.08;;;6.40;99.90;;;;;;5029336;28;20045;-72
2024/03/24 09:20:19;;;;;;;6.15;1.23;;;6.40;99.90;;;;;;5026653;28;20030;-71
2024/03/24 09:22:46;;;;;;;2.13;0.77;;;6.40;99.90;;;;;;5018780;28;20049;-71
2024/03/24 09:25:12;;;;;;;4.82;1.15;;;6.40;99.90;;;;;;5023051;28;20421;-71
2024/03/24 09:27:37;;;;;;;5.82;1.00;;;6.50;99.90;;;;;;5024534;28;20033;-71
2024/03/24 09:30:04;;;;;;;5.57;1.10;;;6.60;99.90;;;;;;5019917;28;20069;-71
2024/03/24 09:32:30;;;;;;;3.97;0.90;;;6.60;99.90;;;;;;5023388;28;21952;-72
2024/03/24 09:34:56;;;;;;;6.57;0.98;;;6.70;99.90;;;;;;5021229;28;20084;-73
2024/03/24 09:37:22;;;;;;;8.25;1.30;;;6.70;99.90;;;;;;5011867;28;20053;-74
2024/03/24 09:39:47;;;;;;;6.70;1.10;;;6.80;99.90;;;;;;5023379;28;20077;-72
2024/03/24 09:42:15;;;;;;;7.05;1.20;;;6.90;99.90;;;;;;5024011;28;20046;-73
2024/03/24 09:44:41;;;;;;;6.13;1.23;;;6.90;99.90;;;;;;5024243;28;20045;-72
2024/03/24 09:47:07;;;;;;;10.88;1.90;;;7.10;99.90;;;;;;5029533;28;20041;-72
2024/03/24 09:49:34;;;;;;;3.92;1.13;;;7.20;99.90;;;;;;5022310;28;20037;-73
2024/03/24 09:52:01;;;;;;;7.22;1.48;;;7.30;99.90;;;;;;5024612;28;20046;-72
2024/03/24 09:54:26;;;;;;;6.93;1.63;;;7.30;99.90;;;;;;5021791;28;20057;-72
2024/03/24 09:56:52;;;;;;;5.60;1.60;;;7.40;99.90;;;;;;5030412;28;20395;-72
2024/03/24 09:59:20;;;;;;;9.55;1.80;;;7.50;99.90;;;;;;5023135;28;20040;-72
2024/03/24 10:01:47;;;;;;;11.55;1.90;;;7.50;99.90;;;;;;5038199;28;20554;-72
2024/03/24 10:04:15;;;;;;;8.38;1.90;;;7.70;99.90;;;;;;5026957;28;20049;-74
2024/03/24 10:06:41;;;;;;;8.40;2.00;;;7.70;99.90;;;;;;5016499;28;20118;-74
2024/03/24 10:09:06;;;;;;;7.63;2.30;;;7.90;99.90;;;;;;5025637;28;20124;-76
2024/03/24 10:11:33;;;;;;;5.40;1.30;;;7.90;99.90;;;;;;5040143;22;20550;-74
2024/03/24 10:14:01;;;;;;;6.50;1.38;;;7.90;99.90;;;;;;5062337;28;20131;-73
2024/03/24 10:16:36;;;;;;;4.65;1.20;;;7.80;99.90;;;;;;5059115;28;20124;-74
2024/03/24 10:19:12;;;;;;;8.27;1.80;;;7.80;99.90;;;;;;5062487;28;20040;-73
2024/03/24 10:21:39;;;;;;;10.35;1.63;;;7.80;99.90;;;;;;5051948;28;20041;-73
2024/03/24 10:24:09;;;;;;;11.63;1.80;;;7.70;99.90;;;;;;5049501;28;20065;-74
2024/03/24 10:26:38;;;;;;;5.78;1.52;;;7.60;99.90;;;;;;5034781;28;20045;-74
2024/03/24 10:29:05;;;;;;;11.18;2.72;;;7.40;99.90;;;;;;5050370;28;20041;-75
2024/03/24 10:31:36;;;;;;;10.50;2.88;;;7.40;99.90;;;;;;5050780;28;20139;-71
2024/03/24 10:34:05;;;;;;;9.70;2.40;;;7.20;99.90;;;;;;5049674;28;20049;-72
2024/03/24 10:36:34;;;;;;;8.30;2.55;;;7.20;99.90;;;;;;5048065;28;20094;-73
2024/03/24 10:39:06;;;;;;;9.48;2.03;;;7.10;99.90;;;;;;5049629;28;20057;-72
2024/03/24 10:41:32;;;;;;;8.63;2.10;;;7.10;99.90;;;;;;5050085;28;20037;-71
2024/03/24 10:44:02;;;;;;;13.13;2.67;;;7.00;99.90;;;;;;5050497;28;20044;-71
2024/03/24 10:46:31;;;;;;;7.30;2.47;;;7.20;99.90;;;;;;5049940;28;20040;-71
2024/03/24 10:48:59;;;;;;;9.73;2.50;;;7.10;99.90;;;;;;5045205;28;20040;-72
2024/03/24 10:51:30;;;;;;;10.27;2.53;;;7.20;99.90;;;;;;5050768;28;20041;-69
2024/03/24 10:54:05;;;;;;;10.82;2.88;;;7.50;99.90;;;;;;5046635;28;20436;-71
2024/03/24 10:56:31;;;;;;;13.18;2.80;;;7.80;99.90;;;;;;5048978;28;20175;-71
2024/03/24 10:59:01;;;;;;;15.95;3.10;;;8.10;99.90;;;;;;5050039;28;20141;-71
2024/03/24 11:01:27;;;;;;;18.58;4.05;;;8.30;99.90;;;;;;5050059;28;20673;-70
2024/03/24 11:03:57;;;;;;;20.17;3.67;;;8.50;99.90;;;;;;5050544;28;20060;-70
2024/03/24 11:06:25;;;;;;;23.30;3.92;;;8.60;99.90;;;;;;5049258;28;20048;-70
2024/03/24 11:08:51;;;;;;;19.35;4.20;;;8.80;99.90;;;;;;5051355;28;20108;-70
2024/03/24 11:11:18;;;;;;;22.45;4.60;;;8.80;99.90;;;;;;5048274;28;20123;-70
2024/03/24 11:13:44;;;;;;;23.52;4.40;;;8.90;99.90;;;;;;5038182;28;20391;-70
2024/03/24 11:16:10;;;;;;;19.90;4.78;;;9.00;99.90;;;;;;5042877;28;20045;-70
2024/03/24 11:18:36;;;;;;;17.70;3.45;;;9.00;99.90;;;;;;5043177;28;20097;-70
2024/03/24 11:21:06;;;;;;;19.48;4.85;;;9.00;99.90;;;;;;5048163;28;20055;-70
2024/03/24 11:23:37;;;;;;;10.98;2.92;;;8.90;99.90;;;;;;5048686;28;20045;-71
2024/03/24 11:26:08;;;;;;;16.77;4.13;;;8.30;99.90;;;;;;5054926;28;20069;-71
2024/03/24 11:28:43;;;;;;;16.73;3.90;;;8.90;99.90;;;;;;5047639;28;20086;-71
2024/03/24 11:31:32;;;;;;;20.58;4.72;;;9.10;99.90;;;;;;5044978;28;20570;-69
2024/03/24 11:34:03;;;;;;;17.63;3.08;;;9.20;99.90;;;;;;5030182;28;20435;-71
2024/03/24 11:36:30;;;;;;;14.63;2.92;;;9.30;99.90;;;;;;5041176;28;20044;-71
2024/03/24 11:38:57;;;;;;;12.23;2.50;;;9.60;99.90;;;;;;5040980;28;20396;-71
2024/03/24 11:41:23;;;;;;;12.98;3.10;;;9.60;99.90;;;;;;5042918;28;20410;-71
2024/03/24 11:43:55;;;;;;;11.75;2.30;;;9.50;99.90;;;;;;5041969;28;20082;-71
2024/03/24 11:46:21;;;;;;;19.77;3.58;;;9.40;99.90;;;;;;5042266;28;20041;-72
2024/03/24 11:48:48;;;;;;;19.00;3.03;;;9.30;99.90;;;;;;5040590;28;20052;-71
2024/03/24 11:51:14;;;;;;;19.65;3.00;;;9.30;99.90;;;;;;5041526;28;20052;-70
2024/03/24 11:53:41;;;;;;;12.90;2.42;;;9.50;99.90;;;;;;5040344;28;20033;-71
2024/03/24 11:56:07;;;;;;;14.68;2.70;;;9.60;99.90;;;;;;5043445;28;20048;-71
2024/03/24 11:58:32;;;;;;;17.95;8.25;;;9.40;99.90;;;;;;5040497;28;20562;-72
2024/03/24 12:01:00;;;;;;;13.88;4.35;;;9.10;99.90;;;;;;5041668;28;20033;-72
2024/03/24 12:03:25;;;;;;;9.98;2.60;;;9.00;99.90;;;;;;5044142;28;20045;-72
2024/03/24 12:05:52;;;;;;;5.32;1.80;;;8.70;99.90;;;;;;5043068;28;20044;-73
2024/03/24 12:08:20;;;;;;;11.43;1.95;;;8.50;99.90;;;;;;5039058;28;20067;-73
2024/03/24 12:10:46;;;;;;;6.15;2.38;;;8.30;99.90;;;;;;5044975;28;20106;-73
2024/03/24 12:13:12;;;;;;;8.55;1.88;;;8.10;99.90;;;;;;5049561;28;20049;-70
2024/03/24 12:15:38;;;;;;;7.72;2.22;;;7.90;99.90;;;;;;5038663;28;20531;-71
2024/03/24 12:18:08;;;;;;;6.45;2.17;;;7.90;99.90;;;;;;5040368;28;20040;-70
2024/03/24 12:20:34;;;;;;;7.57;1.98;;;7.80;99.90;;;;;;5042833;28;20064;-70
2024/03/24 12:23:01;;;;;;;9.95;1.88;;;7.70;99.90;;;;;;5044744;28;20392;-71
2024/03/24 12:25:28;;;;;;;9.70;2.00;;;7.70;99.90;;;;;;5041865;28;20088;-71
2024/03/24 12:27:57;;;;;;;12.30;2.90;;;7.50;99.90;;;;;;5048346;28;20043;-71
2024/03/24 12:30:24;;;;;;;15.02;2.58;;;7.50;99.90;;;;;;5044156;28;20029;-70
2024/03/24 12:32:50;;;;;;;12.18;2.75;;;7.60;99.90;;;;;;5043597;28;20052;-71
2024/03/24 12:35:18;;;;;;;15.20;3.45;;;7.90;99.90;;;;;;5041870;28;20098;-70
2024/03/24 12:37:49;;;;;;;15.45;3.00;;;8.10;99.90;;;;;;5044454;28;20098;-70
2024/03/24 12:40:19;;;;;;;22.95;4.38;;;8.40;99.90;;;;;;5039360;28;20087;-70
2024/03/24 12:42:47;;;;;;;20.42;3.40;;;8.30;99.90;;;;;;5034528;28;20039;-69
2024/03/24 12:45:15;;;;;;;17.83;3.17;;;8.40;99.90;;;;;;5041501;28;20048;-70
2024/03/24 12:47:41;;;;;;;20.90;3.70;;;8.40;99.90;;;;;;5041622;28;20685;-70